Time;durP1;ratioP1;P1;durP2;ratioP2;P2;SDS_P1;SDS_P2;PMS_P1;PMS_P2;Temp;Humidity;BMP_temperature;BMP_pressure;BME280_temperature;BME280_humidity;BME280_pressure;Samples;Min_cycle;Max_cycle;Signal;HPM_P1;HPM_P2
2022/08/02 00:01:05;;;;;;;2.95;2.30;;;;;;;20.29;51.29;94730.81;5130314;27;20199;-69
2022/08/02 00:03:33;;;;;;;2.50;2.30;;;;;;;20.29;52.25;94730.03;5096917;28;20665;-69
2022/08/02 00:06:00;;;;;;;2.35;2.15;;;;;;;20.34;52.56;94727.56;5096671;28;20291;-69
2022/08/02 00:08:30;;;;;;;2.30;2.20;;;;;;;20.33;52.23;94730.75;5096447;28;20208;-69
2022/08/02 00:10:58;;;;;;;3.65;2.45;;;;;;;20.27;52.10;94722.06;5096239;28;20192;-69
2022/08/02 00:13:26;;;;;;;2.65;2.45;;;;;;;20.19;52.40;94718.59;5096750;28;20187;-69
2022/08/02 00:15:53;;;;;;;2.65;2.35;;;;;;;20.16;52.58;94725.03;5130006;27;20216;-69
2022/08/02 00:18:20;;;;;;;2.67;2.47;;;;;;;20.11;52.78;94725.47;5095867;28;20194;-69
2022/08/02 00:20:48;;;;;;;2.40;2.20;;;;;;;20.08;53.21;94725.53;5095685;28;20378;-69
2022/08/02 00:23:16;;;;;;;2.40;2.20;;;;;;;20.04;52.94;94720.00;5096909;28;20209;-68
2022/08/02 00:25:46;;;;;;;2.80;2.35;;;;;;;20.03;53.04;94724.00;5096760;28;20217;-68
2022/08/02 00:28:13;;;;;;;2.22;2.13;;;;;;;20.06;52.84;94723.19;5096620;28;20211;-68
2022/08/02 00:30:41;;;;;;;2.30;2.10;;;;;;;20.10;52.56;94725.91;5096466;28;20530;-69
2022/08/02 00:33:08;;;;;;;2.17;1.98;;;;;;;20.15;49.49;94709.44;5096641;28;20265;-69
2022/08/02 00:35:36;;;;;;;2.35;2.20;;;;;;;20.25;51.05;94718.09;5095633;28;20222;-69
2022/08/02 00:38:04;;;;;;;2.35;2.25;;;;;;;20.29;50.49;94719.63;5096231;28;20196;-69
2022/08/02 00:40:32;;;;;;;2.20;2.10;;;;;;;20.33;51.62;94722.34;5130094;27;20196;-69
2022/08/02 00:43:07;;;;;;;2.28;2.08;;;;;;;20.35;51.57;94720.72;5095711;28;20211;-69
2022/08/02 00:45:35;;;;;;;2.28;2.17;;;;;;;20.35;51.06;94714.34;5096391;28;20180;-69
2022/08/02 00:48:02;;;;;;;2.58;2.38;;;;;;;20.46;49.43;94711.38;5130129;27;20196;-69
2022/08/02 00:50:29;;;;;;;2.60;2.40;;;;;;;20.62;47.31;94711.50;5095152;28;20208;-69
2022/08/02 00:52:58;;;;;;;2.30;2.10;;;;;;;20.77;45.58;94706.44;5094962;28;20204;-69
2022/08/02 00:55:26;;;;;;;2.75;2.55;;;;;;;20.86;45.52;94704.66;5094846;28;20240;-69
2022/08/02 00:57:55;;;;;;;2.40;2.20;;;;;;;20.97;44.82;94707.28;5095856;28;20200;-69
2022/08/02 01:00:24;;;;;;;2.17;2.03;;;;;;;21.04;45.16;94700.75;5095888;28;20539;-69
2022/08/02 01:02:52;;;;;;;2.53;2.20;;;;;;;21.09;43.71;94705.84;5096084;28;20200;-69
2022/08/02 01:05:21;;;;;;;2.13;2.03;;;;;;;21.14;44.14;94699.75;5095177;28;20192;-69
2022/08/02 01:07:47;;;;;;;2.15;2.05;;;;;;;21.17;44.05;94698.91;5129181;27;20200;-69
2022/08/02 01:10:18;;;;;;;2.25;2.05;;;;;;;21.20;44.10;94697.22;5095466;28;20200;-69
2022/08/02 01:12:46;;;;;;;2.10;2.00;;;;;;;21.20;43.42;94703.63;5095651;28;20519;-69
2022/08/02 01:15:14;;;;;;;2.53;2.20;;;;;;;21.25;43.71;94703.13;5094732;28;20235;-69
2022/08/02 01:17:49;;;;;;;2.15;2.05;;;;;;;21.24;43.21;94704.38;5094888;28;20201;-68
2022/08/02 01:20:34;;;;;;;2.88;2.20;;;;;;;21.27;43.67;94697.09;5095570;28;20184;-69
2022/08/02 01:23:15;;;;;;;2.67;2.15;;;;;;;21.26;44.08;94696.31;5095008;28;20236;-69
2022/08/02 01:25:57;;;;;;;2.58;2.13;;;;;;;21.19;46.23;94693.63;5094304;28;20220;-68
2022/08/02 01:28:37;;;;;;;2.45;2.20;;;;;;;21.04;47.45;94700.75;5094575;28;20250;-69
2022/08/02 01:31:16;;;;;;;2.28;2.10;;;;;;;20.86;48.17;94701.09;5094885;28;20291;-69
2022/08/02 01:33:48;;;;;;;2.33;2.20;;;;;;;20.82;47.89;94694.75;5094558;28;20211;-68
2022/08/02 01:36:18;;;;;;;2.35;2.15;;;;;;;20.67;48.21;94691.41;5094754;28;20223;-68
2022/08/02 01:38:48;;;;;;;2.90;2.40;;;;;;;20.60;48.70;94700.72;5094687;28;20261;-68
2022/08/02 01:41:20;;;;;;;2.20;2.10;;;;;;;20.55;49.68;94701.22;5095463;28;20200;-68
2022/08/02 01:43:52;;;;;;;3.05;2.30;;;;;;;20.41;48.90;94701.44;5094230;28;20192;-68
2022/08/02 01:46:20;;;;;;;4.80;2.92;;;;;;;20.26;49.23;94700.06;5095538;28;20185;-69
2022/08/02 01:48:49;;;;;;;3.25;2.90;;;;;;;20.15;49.28;94700.22;5095421;28;20206;-68
2022/08/02 01:51:18;;;;;;;4.20;3.20;;;;;;;20.05;50.13;94698.41;5095412;28;20180;-69
2022/08/02 01:53:49;;;;;;;3.40;3.10;;;;;;;19.96;50.23;94702.50;5094935;28;20192;-69
2022/08/02 01:56:19;;;;;;;3.58;2.90;;;;;;;19.88;50.63;94708.66;5094268;28;20212;-69
2022/08/02 01:58:49;;;;;;;4.65;3.20;;;;;;;19.72;51.19;94703.69;5128745;28;20200;-68
2022/08/02 02:01:19;;;;;;;2.85;2.65;;;;;;;19.67;51.90;94712.53;5095001;28;20192;-68
2022/08/02 02:03:47;;;;;;;2.80;2.60;;;;;;;19.63;52.28;94717.38;5128383;28;20268;-68
2022/08/02 02:06:15;;;;;;;3.20;3.00;;;;;;;19.51;53.20;94710.31;5127999;28;20196;-68
2022/08/02 02:08:44;;;;;;;3.33;3.03;;;;;;;19.38;53.03;94715.66;5128635;28;20207;-69
2022/08/02 02:11:11;;;;;;;3.35;2.95;;;;;;;19.37;53.20;94716.09;5094083;28;20203;-69
2022/08/02 02:13:41;;;;;;;3.42;3.05;;;;;;;19.36;53.09;94720.09;5094224;28;20196;-69
2022/08/02 02:16:11;;;;;;;3.45;3.05;;;;;;;19.33;53.30;94720.94;5093848;28;20688;-69
2022/08/02 02:18:42;;;;;;;3.03;2.80;;;;;;;19.26;53.31;94721.81;5093839;28;20239;-69
2022/08/02 02:21:12;;;;;;;3.88;3.45;;;;;;;19.18;53.73;94723.91;5095172;28;20203;-69
2022/08/02 02:23:39;;;;;;;3.30;3.00;;;;;;;19.07;54.06;94723.22;5095083;28;20188;-69
2022/08/02 02:26:08;;;;;;;3.78;3.10;;;;;;;19.03;54.43;94722.47;5093844;28;20199;-69
2022/08/02 02:28:37;;;;;;;3.25;2.95;;;;;;;18.97;54.39;94724.13;5128093;28;20196;-69
2022/08/02 02:31:08;;;;;;;3.72;2.80;;;;;;;18.94;54.96;94724.97;5095000;28;20189;-69
2022/08/02 02:33:40;;;;;;;3.08;2.83;;;;;;;18.93;54.84;94724.19;5094952;28;20295;-69
2022/08/02 02:36:09;;;;;;;4.47;3.10;;;;;;;18.97;53.99;94724.13;5094967;28;20228;-69
2022/08/02 02:38:36;;;;;;;4.10;3.13;;;;;;;19.03;54.17;94727.25;5094586;28;20200;-69
2022/08/02 02:41:06;;;;;;;3.33;3.00;;;;;;;19.06;53.89;94727.22;5095782;28;20196;-69
2022/08/02 02:43:35;;;;;;;2.90;2.65;;;;;;;19.09;53.09;94718.00;5098391;28;20219;-69
2022/08/02 02:46:04;;;;;;;4.32;3.70;;;;;;;19.06;54.52;94713.25;5097547;28;20639;-69
2022/08/02 02:48:32;;;;;;;4.15;3.75;;;;;;;18.94;55.36;94727.75;5097730;28;20212;-69
2022/08/02 02:51:04;;;;;;;5.38;3.67;;;;;;;18.81;55.51;94721.09;5132026;27;20207;-69
2022/08/02 02:53:33;;;;;;;5.38;3.40;;;;;;;18.70;56.14;94718.38;5097317;28;20208;-69
2022/08/02 02:56:02;;;;;;;4.57;3.00;;;;;;;18.62;55.70;94712.06;5098190;28;20289;-69
2022/08/02 02:58:30;;;;;;;5.05;3.10;;;;;;;18.50;56.42;94718.19;5097574;28;20197;-68
2022/08/02 03:03:44;;;;;;;4.15;3.00;;;;;;;18.31;56.15;94721.53;5097397;28;20212;-68
2022/08/02 03:06:17;;;;;;;3.72;3.22;;;;;;;18.20;55.93;94730.00;5097333;28;20211;-68
2022/08/02 03:08:44;;;;;;;3.58;3.28;;;;;;;18.18;56.30;94718.44;5096859;28;20211;-68
2022/08/02 03:11:14;;;;;;;5.85;3.17;;;;;;;18.19;55.79;94718.03;5097935;28;20203;-68
2022/08/02 03:13:42;;;;;;;3.97;3.30;;;;;;;18.25;56.13;94723.97;5097858;28;20195;-69
2022/08/02 03:16:10;;;;;;;3.75;3.08;;;;;;;18.32;56.43;94717.53;5096754;28;20223;-68
2022/08/02 03:18:42;;;;;;;5.85;3.55;;;;;;;18.34;56.32;94717.91;5098099;28;20200;-69
2022/08/02 03:21:10;;;;;;;4.05;3.10;;;;;;;18.34;56.17;94720.69;5097155;28;20250;-69
2022/08/02 03:23:42;;;;;;;3.40;3.20;;;;;;;18.35;56.50;94725.09;5097673;28;20220;-69
2022/08/02 03:26:09;;;;;;;4.35;3.50;;;;;;;18.35;56.77;94723.09;5097017;28;20220;-69
2022/08/02 03:28:36;;;;;;;3.47;3.17;;;;;;;18.35;56.17;94728.69;5131601;27;20192;-69
2022/08/02 03:31:04;;;;;;;3.85;3.55;;;;;;;18.37;56.42;94726.25;5097718;28;20216;-69
2022/08/02 03:33:33;;;;;;;3.60;3.13;;;;;;;18.38;56.54;94725.06;5080024;28;20200;-69
2022/08/02 03:36:10;;;;;;;3.97;3.53;;;;;;;18.39;57.08;94725.84;5096508;28;20698;-69
2022/08/02 03:38:40;;;;;;;3.55;3.25;;;;;;;18.36;56.72;94718.28;5097758;28;20199;-69
2022/08/02 03:41:10;;;;;;;3.72;3.40;;;;;;;18.42;56.05;94733.41;5096838;28;20219;-68
2022/08/02 03:43:37;;;;;;;3.30;3.10;;;;;;;18.46;56.08;94732.16;5097611;28;20185;-70
2022/08/02 03:46:05;;;;;;;4.65;3.40;;;;;;;18.47;56.50;94732.97;5097484;28;20232;-70
2022/08/02 03:48:33;;;;;;;4.40;3.30;;;;;;;18.45;56.70;94730.59;5096771;28;20204;-69
2022/08/02 03:51:01;;;;;;;3.50;3.20;;;;;;;18.44;55.57;94728.19;5097558;28;20197;-70
2022/08/02 03:53:31;;;;;;;3.55;3.25;;;;;;;18.43;55.37;94735.78;5097286;28;20216;-70
2022/08/02 03:56:01;;;;;;;3.92;3.30;;;;;;;18.48;55.67;94732.56;5096313;28;20216;-70
2022/08/02 03:58:29;;;;;;;3.63;3.33;;;;;;;18.51;55.67;94737.28;5096412;28;20207;-70
2022/08/02 04:00:57;;;;;;;5.53;3.60;;;;;;;18.55;55.82;94754.03;5096578;28;20189;-70
2022/08/02 04:03:26;;;;;;;4.63;3.88;;;;;;;18.50;56.71;94746.88;5097215;28;20184;-69
2022/08/02 04:05:53;;;;;;;7.15;4.05;;;;;;;18.36;57.17;94752.59;5096289;28;20204;-69
2022/08/02 04:08:21;;;;;;;5.65;4.07;;;;;;;18.26;57.17;94759.03;5096749;28;20220;-70
2022/08/02 04:13:36;;;;;;;3.92;3.45;;;;;;;18.17;57.46;94770.69;5097002;28;20172;-69
2022/08/02 04:16:07;;;;;;;4.97;3.42;;;;;;;18.20;57.40;94766.28;5096927;28;20208;-70
2022/08/02 04:18:39;;;;;;;6.32;3.85;;;;;;;18.26;57.27;94773.81;5096193;28;20196;-70
2022/08/02 04:21:12;;;;;;;5.05;4.55;;;;;;;18.32;57.43;94776.94;5096959;28;20189;-70
2022/08/02 04:23:42;;;;;;;7.28;4.78;;;;;;;18.35;57.42;94769.75;5095562;28;20581;-71
2022/08/02 04:26:11;;;;;;;9.43;6.45;;;;;;;18.31;57.98;94772.59;5095615;28;20604;-71
2022/08/02 04:28:40;;;;;;;9.85;7.75;;;;;;;18.36;56.75;94774.94;5096832;28;20185;-71
2022/08/02 04:31:09;;;;;;;8.20;7.03;;;;;;;18.43;56.78;94771.28;5095921;28;20185;-71
2022/08/02 04:33:38;;;;;;;5.50;4.72;;;;;;;18.47;56.32;94775.63;5095868;28;20264;-71
2022/08/02 04:36:06;;;;;;;4.95;4.55;;;;;;;18.48;57.21;94768.88;5096717;28;20209;-71
2022/08/02 04:38:33;;;;;;;4.78;3.97;;;;;;;18.48;56.75;94768.03;5096574;28;20196;-70
2022/08/02 04:41:01;;;;;;;5.20;4.32;;;;;;;18.51;56.93;94772.81;5096694;28;20272;-70
2022/08/02 04:43:28;;;;;;;4.50;4.10;;;;;;;18.50;56.64;94774.81;5095637;28;20207;-71
2022/08/02 04:46:01;;;;;;;4.30;3.90;;;;;;;18.50;56.58;94777.59;5095859;28;20204;-71
2022/08/02 04:48:30;;;;;;;5.40;4.25;;;;;;;18.59;56.31;94777.16;5095518;28;20196;-71
2022/08/02 04:50:57;;;;;;;7.28;4.20;;;;;;;18.64;55.89;94773.13;5096348;28;20196;-71
2022/08/02 04:53:25;;;;;;;5.97;4.57;;;;;;;18.60;55.93;94772.38;5096214;28;20192;-70
2022/08/02 04:55:54;;;;;;;4.85;4.38;;;;;;;18.60;55.92;94784.31;5095821;28;20239;-70
2022/08/02 04:58:22;;;;;;;5.60;4.25;;;;;;;18.61;55.40;94777.53;5096366;28;20180;-69
2022/08/02 05:00:49;;;;;;;5.75;4.35;;;;;;;18.62;55.26;94781.91;5095531;28;20627;-70
2022/08/02 05:03:18;;;;;;;5.20;4.50;;;;;;;18.63;54.99;94777.91;5094775;28;20200;-71
2022/08/02 05:05:46;;;;;;;5.38;4.30;;;;;;;18.71;55.54;94770.28;5096296;28;20184;-71
2022/08/02 05:08:14;;;;;;;4.95;4.32;;;;;;;18.79;55.13;94783.00;5096425;28;20184;-69
2022/08/02 05:10:41;;;;;;;8.48;4.60;;;;;;;18.84;55.45;94784.53;5096123;28;20196;-69
2022/08/02 05:13:09;;;;;;;5.18;4.65;;;;;;;18.90;55.56;94780.88;5095983;28;20187;-70
2022/08/02 05:15:38;;;;;;;7.25;4.80;;;;;;;18.94;55.48;94778.84;5096087;28;20195;-70
2022/08/02 05:18:05;;;;;;;6.05;4.50;;;;;;;19.00;55.58;94784.78;5096118;28;20215;-70
2022/08/02 05:20:33;;;;;;;6.03;4.80;;;;;;;19.06;55.36;94790.72;5095428;28;20220;-70
2022/08/02 05:23:02;;;;;;;6.63;4.68;;;;;;;19.14;55.32;94790.25;5095199;28;20224;-69
2022/08/02 05:25:30;;;;;;;5.07;4.15;;;;;;;19.27;54.37;94786.91;5094703;28;20257;-69
2022/08/02 05:27:59;;;;;;;7.53;4.55;;;;;;;19.38;55.40;94782.00;5095935;28;20189;-69
2022/08/02 05:30:27;;;;;;;6.40;4.25;;;;;;;19.48;53.65;94789.47;5096116;28;20592;-69
2022/08/02 05:32:53;;;;;;;9.32;8.52;;;;;;;19.64;52.74;94788.91;5095551;28;20199;-70
2022/08/02 05:35:23;;;;;;;6.38;4.85;;;;;;;19.80;52.44;94791.13;5095734;28;20195;-71
2022/08/02 05:37:52;;;;;;;4.47;3.95;;;;;;;19.95;51.87;94790.50;5095854;28;20312;-70
2022/08/02 05:40:20;;;;;;;5.85;3.50;;;;;;;20.02;51.17;94794.44;5094597;28;20204;-70
2022/08/02 05:42:50;;;;;;;3.92;3.28;;;;;;;20.13;50.32;94793.06;5095732;28;20546;-71
2022/08/02 05:45:18;;;;;;;3.75;3.20;;;;;;;20.20;49.19;94794.97;5094520;28;20222;-69
2022/08/02 05:47:46;;;;;;;4.78;3.53;;;;;;;20.25;48.99;94804.91;5095337;28;20192;-69
2022/08/02 05:50:13;;;;;;;3.67;3.40;;;;;;;20.32;49.06;94799.19;5094679;28;20208;-70
2022/08/02 05:52:45;;;;;;;3.00;2.80;;;;;;;20.36;48.35;94791.53;5094632;28;20207;-70
2022/08/02 05:55:26;;;;;;;3.60;3.15;;;;;;;20.40;48.46;94795.06;5095073;28;20259;-69
2022/08/02 05:58:02;;;;;;;4.00;3.47;;;;;;;20.46;47.65;94801.00;5095446;28;20204;-70
2022/08/02 06:00:31;;;;;;;3.20;2.90;;;;;;;20.48;46.79;94801.34;5094762;28;20257;-70
2022/08/02 06:03:21;;;;;;;3.38;3.08;;;;;;;20.50;47.21;94798.97;5094687;28;20188;-70
2022/08/02 06:05:54;;;;;;;4.45;2.80;;;;;;;20.49;47.38;94808.56;5094285;28;20204;-70
2022/08/02 06:08:25;;;;;;;3.40;3.10;;;;;;;20.55;47.54;94809.69;5095235;28;20195;-69
2022/08/02 06:10:57;;;;;;;3.13;2.85;;;;;;;20.55;47.08;94810.50;5095204;28;20196;-69
2022/08/02 06:13:25;;;;;;;2.92;2.72;;;;;;;20.58;47.27;94812.41;5094717;28;20196;-69
2022/08/02 06:15:58;;;;;;;3.42;3.13;;;;;;;20.67;47.73;94811.91;5095552;28;20211;-69
2022/08/02 06:18:27;;;;;;;2.97;2.78;;;;;;;20.72;46.97;94819.03;5098753;28;20220;-69
2022/08/02 06:20:56;;;;;;;3.13;2.88;;;;;;;20.75;46.39;94821.78;5098554;28;20195;-69
2022/08/02 06:23:23;;;;;;;2.90;2.70;;;;;;;20.79;46.62;94824.53;5098522;28;20196;-70
2022/08/02 06:25:54;;;;;;;3.17;2.70;;;;;;;20.85;46.73;94820.81;5098516;28;20199;-69
2022/08/02 06:28:21;;;;;;;3.08;2.78;;;;;;;20.89;46.44;94820.75;5098466;28;20205;-70
2022/08/02 06:30:50;;;;;;;2.50;2.40;;;;;;;20.97;46.54;94824.22;5098592;28;20192;-69
2022/08/02 06:33:20;;;;;;;3.88;2.60;;;;;;;20.97;46.27;94822.22;5099122;28;20184;-69
2022/08/02 06:35:55;;;;;;;2.65;2.55;;;;;;;20.96;45.52;94826.25;5098891;28;20196;-69
2022/08/02 06:38:25;;;;;;;3.05;2.80;;;;;;;20.95;45.46;94829.47;5099516;28;20208;-71
2022/08/02 06:40:57;;;;;;;2.70;2.50;;;;;;;21.00;45.95;94834.59;5098170;28;20249;-70
2022/08/02 06:43:31;;;;;;;2.65;2.45;;;;;;;21.06;45.54;94839.28;5098306;28;20200;-69
2022/08/02 06:46:02;;;;;;;3.40;2.60;;;;;;;21.10;46.37;94845.63;5098349;28;20204;-70
2022/08/02 06:48:30;;;;;;;3.22;2.92;;;;;;;21.18;46.19;94832.28;5098057;28;20197;-68
2022/08/02 06:50:58;;;;;;;2.97;2.78;;;;;;;21.21;46.47;94828.63;5098032;28;20216;-69
2022/08/02 06:53:25;;;;;;;2.80;2.53;;;;;;;21.25;46.00;94831.38;5098898;28;20184;-67
2022/08/02 06:55:54;;;;;;;4.13;2.97;;;;;;;21.30;46.10;94828.84;5098094;28;20240;-69
2022/08/02 06:58:22;;;;;;;4.15;3.78;;;;;;;21.33;45.33;94824.41;5098487;28;20559;-68
2022/08/02 07:00:49;;;;;;;4.10;3.08;;;;;;;21.33;45.55;94832.81;5098496;28;20189;-71
2022/08/02 07:03:18;;;;;;;2.75;2.55;;;;;;;21.37;46.12;94827.97;5097963;28;20270;-71
2022/08/02 07:05:47;;;;;;;2.50;2.38;;;;;;;21.36;45.72;94823.56;5098269;28;20185;-71
2022/08/02 07:08:16;;;;;;;2.83;2.38;;;;;;;21.37;45.84;94825.94;5097602;28;20650;-71
2022/08/02 07:10:45;;;;;;;3.42;2.85;;;;;;;21.47;46.32;94829.00;5097744;28;20200;-71
2022/08/02 07:13:15;;;;;;;3.85;3.00;;;;;;;21.50;46.00;94823.31;5097186;28;20192;-71
2022/08/02 07:15:42;;;;;;;2.65;2.45;;;;;;;21.56;46.43;94832.00;5097119;28;20201;-71
2022/08/02 07:18:13;;;;;;;2.75;2.53;;;;;;;21.56;46.56;94827.19;5098359;28;20215;-71
2022/08/02 07:20:41;;;;;;;4.07;3.08;;;;;;;21.58;46.49;94832.38;5097749;28;20196;-71
2022/08/02 07:23:08;;;;;;;3.10;2.80;;;;;;;21.63;46.61;94827.03;5097460;28;20239;-71
2022/08/02 07:25:36;;;;;;;3.08;2.88;;;;;;;21.68;45.76;94828.59;5097299;28;20190;-71
2022/08/02 07:28:04;;;;;;;3.13;2.83;;;;;;;21.67;45.49;94818.56;5097723;28;20200;-71
2022/08/02 07:30:33;;;;;;;3.17;2.92;;;;;;;21.66;46.24;94814.19;5097737;28;20550;-71
2022/08/02 07:33:01;;;;;;;2.58;2.42;;;;;;;21.68;45.52;94819.34;5097916;28;20242;-71
2022/08/02 07:35:29;;;;;;;3.00;2.60;;;;;;;21.75;45.77;94817.22;5097140;28;20201;-71
2022/08/02 07:37:57;;;;;;;3.47;3.17;;;;;;;21.81;46.01;94821.09;5097805;28;20211;-71
2022/08/02 07:40:26;;;;;;;2.45;2.33;;;;;;;21.86;45.64;94817.78;5097250;28;20201;-71
2022/08/02 07:42:54;;;;;;;2.80;2.60;;;;;;;21.92;45.64;94818.06;5097038;28;20196;-71
2022/08/02 07:45:22;;;;;;;2.58;2.38;;;;;;;21.96;45.30;94820.78;5097683;28;20191;-71
2022/08/02 07:47:52;;;;;;;2.53;2.33;;;;;;;22.00;45.45;94816.69;5097745;28;20197;-70
2022/08/02 07:50:21;;;;;;;2.67;2.40;;;;;;;22.02;45.64;94817.06;5096791;28;20195;-70
2022/08/02 07:52:52;;;;;;;3.38;2.70;;;;;;;22.08;46.20;94814.53;5097659;28;20191;-70
2022/08/02 07:55:20;;;;;;;6.28;3.60;;;;;;;22.19;46.48;94803.88;5096940;28;20271;-70
2022/08/02 07:57:48;;;;;;;2.38;2.25;;;;;;;22.21;45.21;94804.22;5097011;28;20593;-70
2022/08/02 08:00:19;;;;;;;3.47;2.65;;;;;;;22.20;45.11;94810.28;5097439;28;20207;-70
2022/08/02 08:02:47;;;;;;;2.75;2.55;;;;;;;22.17;44.61;94817.56;5096011;28;20192;-70
2022/08/02 08:05:16;;;;;;;3.08;2.30;;;;;;;22.15;45.11;94808.81;5096528;28;20249;-69
2022/08/02 08:07:46;;;;;;;2.85;2.15;;;;;;;22.25;45.50;94806.97;5097302;28;20180;-69
2022/08/02 08:10:12;;;;;;;2.40;2.20;;;;;;;22.27;44.26;94804.53;5097249;28;20253;-70
2022/08/02 08:12:40;;;;;;;2.25;2.10;;;;;;;22.29;45.03;94810.47;5096493;28;20192;-69
2022/08/02 08:15:09;;;;;;;2.42;2.25;;;;;;;22.42;45.12;94807.81;5096165;28;20193;-70
2022/08/02 08:17:37;;;;;;;2.53;2.33;;;;;;;22.59;45.34;94806.59;5097009;28;20211;-69
2022/08/02 08:20:07;;;;;;;2.08;1.98;;;;;;;22.82;43.96;94802.84;5096227;28;20207;-69
2022/08/02 08:22:35;;;;;;;2.30;2.10;;;;;;;22.91;44.07;94808.63;5096981;28;20214;-70
2022/08/02 08:25:04;;;;;;;2.35;2.08;;;;;;;22.94;44.71;94806.97;5095938;28;20200;-70
2022/08/02 08:27:32;;;;;;;1.88;1.73;;;;;;;22.95;44.67;94800.94;5097022;28;20195;-71
2022/08/02 08:30:00;;;;;;;1.90;1.80;;;;;;;23.02;44.31;94814.81;5096776;28;20515;-71
2022/08/02 08:32:28;;;;;;;2.88;2.00;;;;;;;23.04;43.98;94801.09;5096153;28;20189;-71
2022/08/02 08:34:55;;;;;;;2.45;1.88;;;;;;;23.06;44.30;94795.84;5096815;28;20192;-71
2022/08/02 08:37:23;;;;;;;2.20;2.00;;;;;;;23.08;43.52;94797.41;5095875;28;20643;-71
2022/08/02 08:39:52;;;;;;;2.15;1.98;;;;;;;23.08;43.80;94800.22;5095987;28;20195;-71
2022/08/02 08:42:20;;;;;;;2.17;1.90;;;;;;;23.19;44.75;94804.31;5096203;28;20529;-70
2022/08/02 08:44:47;;;;;;;3.63;2.30;;;;;;;23.35;43.60;94800.72;5095742;28;20212;-70
2022/08/02 08:47:15;;;;;;;1.90;1.80;;;;;;;23.50;42.97;94799.09;5096759;28;20189;-70
2022/08/02 08:49:45;;;;;;;3.15;2.70;;;;;;;23.63;42.47;94798.34;5095272;28;20203;-73
2022/08/02 08:52:14;;;;;;;2.60;2.38;;;;;;;23.72;43.17;94796.50;5095584;28;20200;-70
2022/08/02 08:54:42;;;;;;;3.17;2.70;;;;;;;23.82;42.81;94791.00;5096071;28;20225;-70
2022/08/02 08:57:10;;;;;;;3.10;2.42;;;;;;;23.90;42.41;94800.84;5095925;28;20529;-70
2022/08/02 08:59:37;;;;;;;2.22;2.08;;;;;;;23.96;42.53;94799.84;5096132;28;20188;-71
2022/08/02 09:02:04;;;;;;;2.30;2.10;;;;;;;24.03;42.67;94804.47;5095545;28;20654;-70
2022/08/02 09:04:32;;;;;;;2.67;1.98;;;;;;;24.13;41.75;94806.19;5096486;28;20278;-71
2022/08/02 09:07:00;;;;;;;2.25;1.98;;;;;;;24.21;41.29;94803.94;5095776;28;20207;-69
2022/08/02 09:09:28;;;;;;;2.08;1.98;;;;;;;24.23;41.25;94799.47;5095718;28;20204;-69
2022/08/02 09:12:15;;;;;;;1.90;1.80;;;;;;;24.18;41.05;94799.22;5095306;28;20192;-69
2022/08/02 09:14:43;;;;;;;2.45;1.85;;;;;;;24.23;41.73;94807.13;5095930;28;20195;-69
2022/08/02 09:17:12;;;;;;;1.90;1.80;;;;;;;24.34;41.62;94798.34;5095247;28;20211;-69
2022/08/02 09:19:42;;;;;;;1.70;1.60;;;;;;;24.39;41.27;94798.59;5094622;28;20219;-69
2022/08/02 09:22:10;;;;;;;1.80;1.70;;;;;;;24.48;40.05;94798.72;5095523;28;20223;-72
2022/08/02 09:24:46;;;;;;;2.60;1.90;;;;;;;24.48;40.30;94795.91;5095168;28;20196;-72
2022/08/02 09:27:16;;;;;;;1.60;1.50;;;;;;;24.31;39.58;94793.59;5095032;28;20204;-72
2022/08/02 09:29:48;;;;;;;2.45;1.70;;;;;;;24.29;40.26;94791.22;5095939;28;20185;-72
2022/08/02 09:32:15;;;;;;;2.03;1.90;;;;;;;24.40;41.26;94786.09;5095566;28;20204;-72
2022/08/02 09:34:48;;;;;;;1.70;1.60;;;;;;;24.55;40.87;94789.25;5095898;28;20268;-72
2022/08/02 09:37:27;;;;;;;2.03;1.85;;;;;;;24.68;40.63;94784.38;5095723;28;20193;-71
2022/08/02 09:39:59;;;;;;;2.38;2.17;;;;;;;24.84;40.85;94785.53;5095119;28;20254;-72
2022/08/02 09:42:32;;;;;;;1.48;1.30;;;;;;;24.96;39.37;94776.25;5095894;28;20191;-71
2022/08/02 09:45:01;;;;;;;1.75;1.65;;;;;;;24.99;40.42;94778.16;5094607;28;20195;-71
2022/08/02 09:47:32;;;;;;;2.08;1.83;;;;;;;25.14;40.21;94779.28;5094746;28;20192;-71
2022/08/02 09:50:00;;;;;;;1.80;1.70;;;;;;;25.28;39.81;94774.41;5094916;28;20196;-71
2022/08/02 09:52:28;;;;;;;1.70;1.60;;;;;;;25.37;40.03;94768.84;5095319;28;20649;-72
2022/08/02 09:55:03;;;;;;;1.70;1.60;;;;;;;25.43;40.12;94759.34;5095373;28;20243;-71
2022/08/02 09:57:37;;;;;;;2.65;1.80;;;;;;;25.51;39.35;94767.56;5094328;28;20207;-70
2022/08/02 10:00:09;;;;;;;2.42;1.80;;;;;;;25.43;39.51;94769.84;5095416;28;20272;-70
2022/08/02 10:02:39;;;;;;;3.38;1.75;;;;;;;25.40;39.90;94760.25;5095454;28;20180;-70
2022/08/02 10:05:07;;;;;;;1.95;1.85;;;;;;;25.40;40.54;94768.72;5094260;28;20212;-70
2022/08/02 10:07:35;;;;;;;1.58;1.48;;;;;;;25.42;39.21;94756.97;5095251;28;20197;-71
2022/08/02 10:10:03;;;;;;;1.80;1.70;;;;;;;25.49;38.78;94758.75;5094297;28;20207;-70
2022/08/02 10:12:33;;;;;;;2.15;1.60;;;;;;;25.55;38.44;94759.75;5095286;28;20181;-70
2022/08/02 10:15:01;;;;;;;2.00;1.90;;;;;;;25.69;38.51;94759.22;5095194;28;20600;-70
2022/08/02 10:17:29;;;;;;;1.33;1.33;;;;;;;25.81;39.38;94755.56;5095022;28;20599;-70
2022/08/02 10:19:58;;;;;;;2.85;2.55;;;;;;;25.90;39.19;94761.31;5094796;28;20228;-70
2022/08/02 10:22:26;;;;;;;2.13;1.92;;;;;;;25.97;39.41;94756.63;5094617;28;20200;-70
2022/08/02 10:24:54;;;;;;;1.88;1.77;;;;;;;26.10;38.55;94762.97;5094067;28;20217;-71
2022/08/02 10:27:23;;;;;;;1.83;1.63;;;;;;;26.17;38.90;94757.06;5095547;28;20481;-71
2022/08/02 10:29:55;;;;;;;1.60;1.50;;;;;;;26.16;37.15;94756.28;5094136;28;20261;-70
2022/08/02 10:32:27;;;;;;;1.65;1.55;;;;;;;26.17;37.54;94751.41;5095210;28;20227;-71
2022/08/02 10:34:59;;;;;;;1.50;1.40;;;;;;;26.03;37.94;94740.66;5094253;28;20220;-71
2022/08/02 10:37:29;;;;;;;2.17;1.85;;;;;;;25.86;38.10;94751.38;5094225;28;20273;-69
2022/08/02 10:39:58;;;;;;;1.70;1.60;;;;;;;25.88;39.56;94749.66;5094580;28;20216;-70
2022/08/02 10:42:43;;;;;;;3.97;1.85;;;;;;;25.95;39.24;94751.44;5095180;28;20196;-71
2022/08/02 10:45:14;;;;;;;1.70;1.60;;;;;;;26.12;39.42;94749.19;5094386;28;20204;-70
2022/08/02 10:48:02;;;;;;;1.67;1.58;;;;;;;26.33;39.39;94741.94;5094042;28;20188;-71
2022/08/02 10:50:54;;;;;;;1.60;1.50;;;;;;;26.39;38.33;94745.72;5094234;28;20212;-71
2022/08/02 10:53:25;;;;;;;1.83;1.73;;;;;;;26.41;37.21;94746.03;5094322;28;20219;-72
2022/08/02 10:55:54;;;;;;;2.90;1.73;;;;;;;26.49;38.62;94743.75;5093323;28;20247;-71
2022/08/02 10:58:22;;;;;;;1.50;1.40;;;;;;;26.54;38.39;94741.09;5094789;28;20197;-72
2022/08/02 11:00:54;;;;;;;1.60;1.50;;;;;;;26.55;38.65;94739.06;5093651;28;20204;-72
2022/08/02 11:03:36;;;;;;;1.58;1.48;;;;;;;26.57;38.16;94736.53;5098132;28;20604;-72
2022/08/02 11:06:05;;;;;;;2.05;1.60;;;;;;;26.60;38.40;94741.28;5098543;28;20192;-73
2022/08/02 11:08:35;;;;;;;2.50;1.45;;;;;;;26.62;38.53;94745.22;5097791;28;20197;-72
2022/08/02 11:11:17;;;;;;;1.85;1.70;;;;;;;26.60;38.22;94744.09;5097766;28;20207;-73
2022/08/02 11:14:05;;;;;;;1.70;1.60;;;;;;;26.70;38.20;94737.22;5097099;28;20201;-72
2022/08/02 11:17:10;;;;;;;1.92;1.48;;;;;;;26.81;37.93;94742.44;5098692;28;20188;-70
2022/08/02 11:20:09;;;;;;;1.48;1.40;;;;;;;26.76;36.12;94729.72;5097314;28;20686;-72
2022/08/02 11:22:37;;;;;;;1.35;1.35;;;;;;;26.53;36.99;94741.56;5097285;28;20205;-72
2022/08/02 11:25:34;;;;;;;1.38;1.30;;;;;;;26.35;37.72;94748.69;5098877;28;20184;-72
2022/08/02 11:28:12;;;;;;;1.60;1.50;;;;;;;26.29;38.16;94736.41;5098082;28;20608;-73
2022/08/02 11:30:41;;;;;;;1.25;1.25;;;;;;;26.25;38.40;94734.97;5097330;28;20612;-73
2022/08/02 11:33:11;;;;;;;1.65;1.40;;;;;;;26.19;35.98;94734.00;5097905;28;20238;-71
2022/08/02 11:35:39;;;;;;;1.98;1.80;;;;;;;26.23;37.40;94731.81;5097861;28;20628;-72
2022/08/02 11:38:19;;;;;;;1.50;1.40;;;;;;;26.22;37.98;94728.22;5098144;28;20196;-72
2022/08/02 11:40:49;;;;;;;2.03;1.50;;;;;;;26.17;38.18;94732.41;5097870;28;20195;-72
2022/08/02 11:43:21;;;;;;;1.80;1.70;;;;;;;26.34;38.67;94732.97;5097111;28;20196;-71
2022/08/02 11:45:51;;;;;;;1.58;1.48;;;;;;;26.51;37.76;94727.91;5097009;28;20200;-73
2022/08/02 11:48:37;;;;;;;1.40;1.40;;;;;;;26.49;37.14;94726.78;5097677;28;20253;-73
2022/08/02 11:51:10;;;;;;;1.70;1.60;;;;;;;26.40;36.65;94730.34;5097033;28;20200;-72
2022/08/02 11:53:48;;;;;;;1.70;1.60;;;;;;;26.38;37.80;94727.19;5096755;28;20207;-73